sensor_id;sensor_type;location;lat;lon;timestamp;temperature;humidity
55211;DHT22;41082;52.822;6.666;2022-09-09T00:02:20;15.50;99.90
55211;DHT22;41082;52.822;6.666;2022-09-09T00:07:45;15.50;99.90
55211;DHT22;41082;52.822;6.666;2022-09-09T00:12:59;15.50;99.90
55211;DHT22;41082;52.822;6.666;2022-09-09T00:15:46;15.40;99.90
55211;DHT22;41082;52.822;6.666;2022-09-09T00:21:15;15.40;99.90
55211;DHT22;41082;52.822;6.666;2022-09-09T00:24:50;15.40;99.90
55211;DHT22;41082;52.822;6.666;2022-09-09T00:27:04;15.40;99.90
55211;DHT22;41082;52.822;6.666;2022-09-09T00:32:15;15.30;99.90
55211;DHT22;41082;52.822;6.666;2022-09-09T00:35:03;15.30;99.90
55211;DHT22;41082;52.822;6.666;2022-09-09T00:37:31;15.30;99.90
55211;DHT22;41082;52.822;6.666;2022-09-09T00:40:00;15.30;99.90
55211;DHT22;41082;52.822;6.666;2022-09-09T00:42:41;15.30;99.90
55211;DHT22;41082;52.822;6.666;2022-09-09T00:47:49;15.20;99.90
55211;DHT22;41082;52.822;6.666;2022-09-09T00:56:22;15.20;99.90
55211;DHT22;41082;52.822;6.666;2022-09-09T01:01:37;15.20;99.90
55211;DHT22;41082;52.822;6.666;2022-09-09T01:04:13;15.20;99.90
55211;DHT22;41082;52.822;6.666;2022-09-09T01:06:41;15.20;99.90
55211;DHT22;41082;52.822;6.666;2022-09-09T01:12:23;15.20;99.90
55211;DHT22;41082;52.822;6.666;2022-09-09T01:28:28;15.00;99.90
55211;DHT22;41082;52.822;6.666;2022-09-09T01:30:55;15.10;99.90
55211;DHT22;41082;52.822;6.666;2022-09-09T01:33:21;15.10;99.90
55211;DHT22;41082;52.822;6.666;2022-09-09T01:36:21;15.10;99.90
55211;DHT22;41082;52.822;6.666;2022-09-09T01:38:49;15.10;99.90
55211;DHT22;41082;52.822;6.666;2022-09-09T01:41:15;15.10;99.90
55211;DHT22;41082;52.822;6.666;2022-09-09T01:43:41;15.10;99.90
55211;DHT22;41082;52.822;6.666;2022-09-09T01:46:06;15.10;99.90
55211;DHT22;41082;52.822;6.666;2022-09-09T01:48:33;15.10;99.90
55211;DHT22;41082;52.822;6.666;2022-09-09T01:50:59;15.10;99.90
55211;DHT22;41082;52.822;6.666;2022-09-09T01:53:24;15.10;99.90
55211;DHT22;41082;52.822;6.666;2022-09-09T01:59:03;15.20;99.90
55211;DHT22;41082;52.822;6.666;2022-09-09T02:02:02;15.20;99.90
55211;DHT22;41082;52.822;6.666;2022-09-09T02:06:57;15.20;99.90
55211;DHT22;41082;52.822;6.666;2022-09-09T02:09:24;15.30;99.90
55211;DHT22;41082;52.822;6.666;2022-09-09T02:11:57;15.30;99.90
55211;DHT22;41082;52.822;6.666;2022-09-09T02:14:31;15.30;99.90
55211;DHT22;41082;52.822;6.666;2022-09-09T02:17:06;15.30;99.90
55211;DHT22;41082;52.822;6.666;2022-09-09T02:19:45;15.40;99.90
55211;DHT22;41082;52.822;6.666;2022-09-09T02:22:17;15.40;99.90
55211;DHT22;41082;52.822;6.666;2022-09-09T02:24:44;15.40;99.90
55211;DHT22;41082;52.822;6.666;2022-09-09T02:27:12;15.40;99.90
55211;DHT22;41082;52.822;6.666;2022-09-09T02:29:40;15.40;99.90
55211;DHT22;41082;52.822;6.666;2022-09-09T02:32:11;15.40;99.90
55211;DHT22;41082;52.822;6.666;2022-09-09T02:34:40;15.50;99.90
55211;DHT22;41082;52.822;6.666;2022-09-09T02:37:08;15.50;99.90
55211;DHT22;41082;52.822;6.666;2022-09-09T02:39:34;15.50;99.90
55211;DHT22;41082;52.822;6.666;2022-09-09T02:42:00;15.50;99.90
55211;DHT22;41082;52.822;6.666;2022-09-09T02:44:26;15.50;99.90
55211;DHT22;41082;52.822;6.666;2022-09-09T02:47:05;15.50;99.90
55211;DHT22;41082;52.822;6.666;2022-09-09T02:49:48;15.50;99.90
55211;DHT22;41082;52.822;6.666;2022-09-09T02:52:22;15.50;99.90
55211;DHT22;41082;52.822;6.666;2022-09-09T02:54:56;15.40;99.90
55211;DHT22;41082;52.822;6.666;2022-09-09T02:57:25;15.50;99.90
55211;DHT22;41082;52.822;6.666;2022-09-09T02:59:51;15.40;99.90
55211;DHT22;41082;52.822;6.666;2022-09-09T03:02:17;15.50;99.90
55211;DHT22;41082;52.822;6.666;2022-09-09T03:04:44;15.50;99.90
55211;DHT22;41082;52.822;6.666;2022-09-09T03:07:10;15.50;99.90
55211;DHT22;41082;52.822;6.666;2022-09-09T03:09:36;15.50;99.90
55211;DHT22;41082;52.822;6.666;2022-09-09T03:12:02;15.50;99.90
55211;DHT22;41082;52.822;6.666;2022-09-09T03:14:29;15.50;99.90
55211;DHT22;41082;52.822;6.666;2022-09-09T03:16:56;15.50;99.90
55211;DHT22;41082;52.822;6.666;2022-09-09T03:19:23;15.50;99.90
55211;DHT22;41082;52.822;6.666;2022-09-09T03:21:50;15.50;99.90
55211;DHT22;41082;52.822;6.666;2022-09-09T03:24:15;15.50;99.90
55211;DHT22;41082;52.822;6.666;2022-09-09T03:26:41;15.50;99.90
55211;DHT22;41082;52.822;6.666;2022-09-09T03:29:10;15.50;99.90
55211;DHT22;41082;52.822;6.666;2022-09-09T03:31:38;15.50;99.90
55211;DHT22;41082;52.822;6.666;2022-09-09T03:34:04;15.50;99.90
55211;DHT22;41082;52.822;6.666;2022-09-09T03:36:31;15.40;99.90
55211;DHT22;41082;52.822;6.666;2022-09-09T03:38:56;15.40;99.90
55211;DHT22;41082;52.822;6.666;2022-09-09T03:41:23;15.40;99.90
55211;DHT22;41082;52.822;6.666;2022-09-09T03:43:53;15.40;99.90
55211;DHT22;41082;52.822;6.666;2022-09-09T03:46:20;15.40;99.90
55211;DHT22;41082;52.822;6.666;2022-09-09T03:48:46;15.30;99.90
55211;DHT22;41082;52.822;6.666;2022-09-09T03:51:12;15.30;99.90
55211;DHT22;41082;52.822;6.666;2022-09-09T03:53:38;15.30;99.90
55211;DHT22;41082;52.822;6.666;2022-09-09T03:56:05;15.30;99.90
55211;DHT22;41082;52.822;6.666;2022-09-09T03:58:36;15.30;99.90
55211;DHT22;41082;52.822;6.666;2022-09-09T04:01:04;15.30;99.90
55211;DHT22;41082;52.822;6.666;2022-09-09T04:03:31;15.30;99.90
55211;DHT22;41082;52.822;6.666;2022-09-09T04:05:59;15.30;99.90
55211;DHT22;41082;52.822;6.666;2022-09-09T04:08:25;15.20;99.90
55211;DHT22;41082;52.822;6.666;2022-09-09T04:10:51;15.30;99.90
55211;DHT22;41082;52.822;6.666;2022-09-09T04:13:18;15.30;99.90
55211;DHT22;41082;52.822;6.666;2022-09-09T04:15:51;15.20;99.90
55211;DHT22;41082;52.822;6.666;2022-09-09T04:18:16;15.20;99.90
55211;DHT22;41082;52.822;6.666;2022-09-09T04:20:42;15.20;99.90
55211;DHT22;41082;52.822;6.666;2022-09-09T04:23:09;15.20;99.90
55211;DHT22;41082;52.822;6.666;2022-09-09T04:25:34;15.20;99.90
55211;DHT22;41082;52.822;6.666;2022-09-09T04:28:00;15.10;99.90
55211;DHT22;41082;52.822;6.666;2022-09-09T04:30:26;15.10;99.90
55211;DHT22;41082;52.822;6.666;2022-09-09T04:32:53;15.10;99.90
55211;DHT22;41082;52.822;6.666;2022-09-09T04:35:19;15.10;99.90
55211;DHT22;41082;52.822;6.666;2022-09-09T04:37:45;15.10;99.90
55211;DHT22;41082;52.822;6.666;2022-09-09T04:40:11;15.10;99.90
55211;DHT22;41082;52.822;6.666;2022-09-09T04:42:38;15.10;99.90
55211;DHT22;41082;52.822;6.666;2022-09-09T04:45:05;15.10;99.90
55211;DHT22;41082;52.822;6.666;2022-09-09T04:47:32;15.10;99.90
55211;DHT22;41082;52.822;6.666;2022-09-09T04:49:57;15.10;99.90
55211;DHT22;41082;52.822;6.666;2022-09-09T04:52:23;15.00;99.90
55211;DHT22;41082;52.822;6.666;2022-09-09T04:54:48;15.00;99.90
55211;DHT22;41082;52.822;6.666;2022-09-09T04:57:14;15.00;99.90
55211;DHT22;41082;52.822;6.666;2022-09-09T04:59:39;15.10;99.90
55211;DHT22;41082;52.822;6.666;2022-09-09T05:02:05;15.10;99.90
55211;DHT22;41082;52.822;6.666;2022-09-09T05:04:31;15.00;99.90
55211;DHT22;41082;52.822;6.666;2022-09-09T05:06:58;15.00;99.90
55211;DHT22;41082;52.822;6.666;2022-09-09T05:09:24;15.00;99.90
55211;DHT22;41082;52.822;6.666;2022-09-09T05:11:50;15.00;99.90
55211;DHT22;41082;52.822;6.666;2022-09-09T05:14:16;15.00;99.90
55211;DHT22;41082;52.822;6.666;2022-09-09T05:16:44;15.00;99.90
55211;DHT22;41082;52.822;6.666;2022-09-09T05:19:10;15.00;99.90
55211;DHT22;41082;52.822;6.666;2022-09-09T05:21:36;15.00;99.90
55211;DHT22;41082;52.822;6.666;2022-09-09T05:24:02;15.10;99.90
55211;DHT22;41082;52.822;6.666;2022-09-09T05:26:29;15.10;99.90
55211;DHT22;41082;52.822;6.666;2022-09-09T05:28:54;15.00;99.90
55211;DHT22;41082;52.822;6.666;2022-09-09T05:31:20;15.00;99.90
55211;DHT22;41082;52.822;6.666;2022-09-09T05:33:47;15.00;99.90
55211;DHT22;41082;52.822;6.666;2022-09-09T05:36:19;15.00;99.90
55211;DHT22;41082;52.822;6.666;2022-09-09T05:38:45;15.00;99.90
55211;DHT22;41082;52.822;6.666;2022-09-09T05:41:12;15.00;99.90
55211;DHT22;41082;52.822;6.666;2022-09-09T05:43:38;15.00;99.90
55211;DHT22;41082;52.822;6.666;2022-09-09T05:46:11;15.00;99.90
55211;DHT22;41082;52.822;6.666;2022-09-09T05:48:39;15.10;99.90
55211;DHT22;41082;52.822;6.666;2022-09-09T05:51:06;15.10;99.90
55211;DHT22;41082;52.822;6.666;2022-09-09T05:53:32;15.00;99.90
55211;DHT22;41082;52.822;6.666;2022-09-09T05:56:08;15.10;99.90
55211;DHT22;41082;52.822;6.666;2022-09-09T05:58:38;15.20;99.90
55211;DHT22;41082;52.822;6.666;2022-09-09T06:03:29;15.20;99.90
55211;DHT22;41082;52.822;6.666;2022-09-09T06:06:00;15.30;99.90
55211;DHT22;41082;52.822;6.666;2022-09-09T06:08:26;15.30;99.90
55211;DHT22;41082;52.822;6.666;2022-09-09T06:10:52;15.30;99.90
55211;DHT22;41082;52.822;6.666;2022-09-09T06:13:18;15.40;99.90
55211;DHT22;41082;52.822;6.666;2022-09-09T06:15:51;15.40;99.90
55211;DHT22;41082;52.822;6.666;2022-09-09T06:18:18;15.40;99.90
55211;DHT22;41082;52.822;6.666;2022-09-09T06:20:57;15.40;99.90
55211;DHT22;41082;52.822;6.666;2022-09-09T06:23:24;15.40;99.90
55211;DHT22;41082;52.822;6.666;2022-09-09T06:25:50;15.40;99.90
55211;DHT22;41082;52.822;6.666;2022-09-09T06:28:16;15.50;99.90
55211;DHT22;41082;52.822;6.666;2022-09-09T06:30:43;15.50;99.90
55211;DHT22;41082;52.822;6.666;2022-09-09T06:33:09;15.60;99.90
55211;DHT22;41082;52.822;6.666;2022-09-09T06:35:35;15.50;99.90
55211;DHT22;41082;52.822;6.666;2022-09-09T06:38:01;15.60;99.90
55211;DHT22;41082;52.822;6.666;2022-09-09T06:40:26;15.60;99.90
55211;DHT22;41082;52.822;6.666;2022-09-09T06:42:52;15.70;99.90
55211;DHT22;41082;52.822;6.666;2022-09-09T06:45:18;15.60;99.90
55211;DHT22;41082;52.822;6.666;2022-09-09T06:47:44;15.70;99.90
55211;DHT22;41082;52.822;6.666;2022-09-09T06:50:10;15.70;99.90
55211;DHT22;41082;52.822;6.666;2022-09-09T06:52:36;15.80;99.90
55211;DHT22;41082;52.822;6.666;2022-09-09T06:55:03;15.70;99.90
55211;DHT22;41082;52.822;6.666;2022-09-09T06:57:29;15.70;99.90
55211;DHT22;41082;52.822;6.666;2022-09-09T06:59:54;15.70;99.90
55211;DHT22;41082;52.822;6.666;2022-09-09T07:02:20;15.70;99.90
55211;DHT22;41082;52.822;6.666;2022-09-09T07:04:46;15.80;99.90
55211;DHT22;41082;52.822;6.666;2022-09-09T07:07:12;15.80;99.90
55211;DHT22;41082;52.822;6.666;2022-09-09T07:09:40;15.90;99.90
55211;DHT22;41082;52.822;6.666;2022-09-09T07:12:06;15.90;99.90
55211;DHT22;41082;52.822;6.666;2022-09-09T07:14:32;16.00;99.90
55211;DHT22;41082;52.822;6.666;2022-09-09T07:16:59;16.00;99.90
55211;DHT22;41082;52.822;6.666;2022-09-09T07:19:25;16.10;99.90
55211;DHT22;41082;52.822;6.666;2022-09-09T07:21:51;16.10;99.90
55211;DHT22;41082;52.822;6.666;2022-09-09T07:24:16;16.20;99.90
55211;DHT22;41082;52.822;6.666;2022-09-09T07:26:42;16.30;99.90
55211;DHT22;41082;52.822;6.666;2022-09-09T07:29:09;16.40;99.90
55211;DHT22;41082;52.822;6.666;2022-09-09T07:31:36;16.50;99.90
55211;DHT22;41082;52.822;6.666;2022-09-09T07:34:03;16.60;99.90
55211;DHT22;41082;52.822;6.666;2022-09-09T07:36:33;16.60;99.90
55211;DHT22;41082;52.822;6.666;2022-09-09T07:39:05;16.60;99.90
55211;DHT22;41082;52.822;6.666;2022-09-09T07:44:10;16.70;99.90
55211;DHT22;41082;52.822;6.666;2022-09-09T07:46:36;16.70;99.90
55211;DHT22;41082;52.822;6.666;2022-09-09T07:49:03;16.80;99.90
55211;DHT22;41082;52.822;6.666;2022-09-09T07:51:31;16.90;99.90
55211;DHT22;41082;52.822;6.666;2022-09-09T07:53:59;16.90;99.90
55211;DHT22;41082;52.822;6.666;2022-09-09T07:56:26;16.90;99.90
55211;DHT22;41082;52.822;6.666;2022-09-09T07:58:54;17.00;99.90
55211;DHT22;41082;52.822;6.666;2022-09-09T08:01:25;17.00;99.90
55211;DHT22;41082;52.822;6.666;2022-09-09T08:03:57;17.10;99.90
55211;DHT22;41082;52.822;6.666;2022-09-09T08:06:32;17.20;99.90
55211;DHT22;41082;52.822;6.666;2022-09-09T08:08:59;17.10;99.90
55211;DHT22;41082;52.822;6.666;2022-09-09T08:11:26;17.20;99.90
55211;DHT22;41082;52.822;6.666;2022-09-09T08:13:52;17.20;99.90
55211;DHT22;41082;52.822;6.666;2022-09-09T08:16:20;17.30;99.90
55211;DHT22;41082;52.822;6.666;2022-09-09T08:18:50;17.30;99.90
55211;DHT22;41082;52.822;6.666;2022-09-09T08:21:21;17.40;99.90
55211;DHT22;41082;52.822;6.666;2022-09-09T08:23:47;17.50;99.90
55211;DHT22;41082;52.822;6.666;2022-09-09T08:26:21;17.60;99.90
55211;DHT22;41082;52.822;6.666;2022-09-09T08:28:51;17.70;99.90
55211;DHT22;41082;52.822;6.666;2022-09-09T08:31:20;17.80;99.90
55211;DHT22;41082;52.822;6.666;2022-09-09T08:33:46;17.90;99.90
55211;DHT22;41082;52.822;6.666;2022-09-09T08:36:21;17.90;99.90
55211;DHT22;41082;52.822;6.666;2022-09-09T08:38:51;17.90;99.90
55211;DHT22;41082;52.822;6.666;2022-09-09T08:47:39;18.00;99.90
55211;DHT22;41082;52.822;6.666;2022-09-09T08:50:23;18.10;99.90
55211;DHT22;41082;52.822;6.666;2022-09-09T08:52:55;18.20;99.90
55211;DHT22;41082;52.822;6.666;2022-09-09T08:57:54;18.30;99.90
55211;DHT22;41082;52.822;6.666;2022-09-09T09:00:21;18.30;99.90
55211;DHT22;41082;52.822;6.666;2022-09-09T09:05:47;18.40;99.90
55211;DHT22;41082;52.822;6.666;2022-09-09T09:08:41;18.40;99.90
55211;DHT22;41082;52.822;6.666;2022-09-09T09:11:07;18.40;99.90
55211;DHT22;41082;52.822;6.666;2022-09-09T09:18:58;18.40;99.90
55211;DHT22;41082;52.822;6.666;2022-09-09T09:21:44;18.50;99.90
55211;DHT22;41082;52.822;6.666;2022-09-09T09:24:35;18.50;99.90
55211;DHT22;41082;52.822;6.666;2022-09-09T09:27:14;18.60;99.90
55211;DHT22;41082;52.822;6.666;2022-09-09T09:29:40;18.70;99.90
55211;DHT22;41082;52.822;6.666;2022-09-09T09:32:11;18.70;99.90
55211;DHT22;41082;52.822;6.666;2022-09-09T09:34:39;18.80;99.90
55211;DHT22;41082;52.822;6.666;2022-09-09T09:37:20;18.80;99.90
55211;DHT22;41082;52.822;6.666;2022-09-09T09:39:49;18.90;99.90
55211;DHT22;41082;52.822;6.666;2022-09-09T09:42:17;19.10;99.90
55211;DHT22;41082;52.822;6.666;2022-09-09T09:44:43;19.10;99.90
55211;DHT22;41082;52.822;6.666;2022-09-09T09:47:13;19.20;99.90
55211;DHT22;41082;52.822;6.666;2022-09-09T09:49:39;19.30;99.90
55211;DHT22;41082;52.822;6.666;2022-09-09T09:52:18;19.40;99.90
55211;DHT22;41082;52.822;6.666;2022-09-09T09:54:46;19.50;99.90
55211;DHT22;41082;52.822;6.666;2022-09-09T09:57:14;19.60;99.90
55211;DHT22;41082;52.822;6.666;2022-09-09T09:59:41;19.60;99.90
55211;DHT22;41082;52.822;6.666;2022-09-09T10:02:18;19.60;99.90
55211;DHT22;41082;52.822;6.666;2022-09-09T10:04:45;19.60;99.90
55211;DHT22;41082;52.822;6.666;2022-09-09T10:07:19;19.60;99.90
55211;DHT22;41082;52.822;6.666;2022-09-09T10:09:53;19.60;99.90
55211;DHT22;41082;52.822;6.666;2022-09-09T10:12:45;19.70;99.90
55211;DHT22;41082;52.822;6.666;2022-09-09T10:15:48;19.70;99.90
55211;DHT22;41082;52.822;6.666;2022-09-09T10:18:44;19.80;99.90
55211;DHT22;41082;52.822;6.666;2022-09-09T10:27:11;20.00;99.90
55211;DHT22;41082;52.822;6.666;2022-09-09T10:32:37;20.10;99.90
55211;DHT22;41082;52.822;6.666;2022-09-09T10:38:15;20.20;99.90
55211;DHT22;41082;52.822;6.666;2022-09-09T10:46:29;20.40;99.90
55211;DHT22;41082;52.822;6.666;2022-09-09T10:57:42;20.70;99.90
55211;DHT22;41082;52.822;6.666;2022-09-09T11:00:17;20.80;99.90
55211;DHT22;41082;52.822;6.666;2022-09-09T11:02:43;20.80;99.90
55211;DHT22;41082;52.822;6.666;2022-09-09T11:05:37;20.90;99.90
55211;DHT22;41082;52.822;6.666;2022-09-09T11:08:08;20.90;99.90
55211;DHT22;41082;52.822;6.666;2022-09-09T11:13:47;20.70;99.90
55211;DHT22;41082;52.822;6.666;2022-09-09T11:16:23;20.70;99.90
55211;DHT22;41082;52.822;6.666;2022-09-09T11:18:57;20.60;99.90
55211;DHT22;41082;52.822;6.666;2022-09-09T11:21:37;20.70;99.90
55211;DHT22;41082;52.822;6.666;2022-09-09T11:24:11;20.70;99.90
55211;DHT22;41082;52.822;6.666;2022-09-09T11:26:47;20.70;99.90
55211;DHT22;41082;52.822;6.666;2022-09-09T11:29:26;20.80;99.90
55211;DHT22;41082;52.822;6.666;2022-09-09T11:34:50;20.90;99.90
55211;DHT22;41082;52.822;6.666;2022-09-09T11:42:46;20.80;99.90
55211;DHT22;41082;52.822;6.666;2022-09-09T11:45:24;20.70;99.90
55211;DHT22;41082;52.822;6.666;2022-09-09T11:47:55;20.70;99.90
55211;DHT22;41082;52.822;6.666;2022-09-09T11:52:49;20.60;99.90
55211;DHT22;41082;52.822;6.666;2022-09-09T11:58:14;20.60;99.90
55211;DHT22;41082;52.822;6.666;2022-09-09T12:00:48;20.70;99.90
55211;DHT22;41082;52.822;6.666;2022-09-09T12:03:34;20.70;99.90
55211;DHT22;41082;52.822;6.666;2022-09-09T12:06:31;20.80;99.90
55211;DHT22;41082;52.822;6.666;2022-09-09T12:09:11;21.00;99.90
55211;DHT22;41082;52.822;6.666;2022-09-09T12:11:40;21.10;99.90
55211;DHT22;41082;52.822;6.666;2022-09-09T12:14:38;21.10;99.90
55211;DHT22;41082;52.822;6.666;2022-09-09T12:17:19;21.10;99.90
55211;DHT22;41082;52.822;6.666;2022-09-09T12:19:46;21.00;99.90
55211;DHT22;41082;52.822;6.666;2022-09-09T12:22:34;21.00;99.90
55211;DHT22;41082;52.822;6.666;2022-09-09T12:25:23;21.00;99.90
55211;DHT22;41082;52.822;6.666;2022-09-09T12:28:00;21.00;99.90
55211;DHT22;41082;52.822;6.666;2022-09-09T12:30:41;21.00;99.90
55211;DHT22;41082;52.822;6.666;2022-09-09T12:33:12;21.10;99.90
55211;DHT22;41082;52.822;6.666;2022-09-09T12:35:39;21.10;99.90
55211;DHT22;41082;52.822;6.666;2022-09-09T12:38:06;21.20;99.90
55211;DHT22;41082;52.822;6.666;2022-09-09T12:40:36;21.20;99.90
55211;DHT22;41082;52.822;6.666;2022-09-09T12:43:20;21.20;99.90
55211;DHT22;41082;52.822;6.666;2022-09-09T12:45:48;21.30;99.90
55211;DHT22;41082;52.822;6.666;2022-09-09T12:48:19;21.40;99.90
55211;DHT22;41082;52.822;6.666;2022-09-09T12:50:50;21.40;99.90
55211;DHT22;41082;52.822;6.666;2022-09-09T12:53:23;21.30;99.90
55211;DHT22;41082;52.822;6.666;2022-09-09T12:55:55;21.20;99.90
55211;DHT22;41082;52.822;6.666;2022-09-09T12:58:21;21.00;99.90
55211;DHT22;41082;52.822;6.666;2022-09-09T13:00:52;20.80;99.90
55211;DHT22;41082;52.822;6.666;2022-09-09T13:03:20;20.70;99.90
55211;DHT22;41082;52.822;6.666;2022-09-09T13:05:47;20.80;99.90
55211;DHT22;41082;52.822;6.666;2022-09-09T13:08:14;20.80;99.90
55211;DHT22;41082;52.822;6.666;2022-09-09T13:10:46;20.90;99.90
55211;DHT22;41082;52.822;6.666;2022-09-09T13:13:17;21.10;99.90
55211;DHT22;41082;52.822;6.666;2022-09-09T13:15:54;21.20;99.90
55211;DHT22;41082;52.822;6.666;2022-09-09T13:18:30;21.20;99.90
55211;DHT22;41082;52.822;6.666;2022-09-09T13:20:57;21.30;99.90
55211;DHT22;41082;52.822;6.666;2022-09-09T13:23:29;21.30;99.90
55211;DHT22;41082;52.822;6.666;2022-09-09T13:26:04;21.30;99.90
55211;DHT22;41082;52.822;6.666;2022-09-09T13:28:32;21.20;99.90
55211;DHT22;41082;52.822;6.666;2022-09-09T13:31:02;21.20;99.90
55211;DHT22;41082;52.822;6.666;2022-09-09T13:33:32;21.10;99.90
55211;DHT22;41082;52.822;6.666;2022-09-09T13:38:24;20.90;99.90
55211;DHT22;41082;52.822;6.666;2022-09-09T13:43:33;20.80;99.90
55211;DHT22;41082;52.822;6.666;2022-09-09T13:46:03;20.70;99.90
55211;DHT22;41082;52.822;6.666;2022-09-09T13:48:29;20.70;99.90
55211;DHT22;41082;52.822;6.666;2022-09-09T13:51:02;20.60;99.90
55211;DHT22;41082;52.822;6.666;2022-09-09T13:53:30;20.50;99.90
55211;DHT22;41082;52.822;6.666;2022-09-09T13:55:57;20.60;99.90
55211;DHT22;41082;52.822;6.666;2022-09-09T13:58:23;20.60;99.90
55211;DHT22;41082;52.822;6.666;2022-09-09T14:00:51;20.60;99.90
55211;DHT22;41082;52.822;6.666;2022-09-09T14:03:17;20.60;99.90
55211;DHT22;41082;52.822;6.666;2022-09-09T14:05:44;20.60;99.90
55211;DHT22;41082;52.822;6.666;2022-09-09T14:08:16;20.50;99.90
55211;DHT22;41082;52.822;6.666;2022-09-09T14:10:45;20.50;99.90
55211;DHT22;41082;52.822;6.666;2022-09-09T14:13:11;20.50;99.90
55211;DHT22;41082;52.822;6.666;2022-09-09T14:15:37;20.40;99.90
55211;DHT22;41082;52.822;6.666;2022-09-09T14:18:03;20.40;99.90
55211;DHT22;41082;52.822;6.666;2022-09-09T14:20:29;20.40;99.90
55211;DHT22;41082;52.822;6.666;2022-09-09T14:22:54;20.40;99.90
55211;DHT22;41082;52.822;6.666;2022-09-09T14:25:22;20.40;99.90
55211;DHT22;41082;52.822;6.666;2022-09-09T14:27:48;20.40;99.90
55211;DHT22;41082;52.822;6.666;2022-09-09T14:30:14;20.40;99.90
55211;DHT22;41082;52.822;6.666;2022-09-09T14:32:40;20.40;99.90
55211;DHT22;41082;52.822;6.666;2022-09-09T14:35:07;20.40;99.90
55211;DHT22;41082;52.822;6.666;2022-09-09T14:37:32;20.50;99.90
55211;DHT22;41082;52.822;6.666;2022-09-09T14:39:58;20.50;99.90
55211;DHT22;41082;52.822;6.666;2022-09-09T14:42:24;20.60;99.90
55211;DHT22;41082;52.822;6.666;2022-09-09T14:44:49;20.70;99.90
55211;DHT22;41082;52.822;6.666;2022-09-09T14:47:15;20.60;99.90
55211;DHT22;41082;52.822;6.666;2022-09-09T14:49:41;20.60;99.90
55211;DHT22;41082;52.822;6.666;2022-09-09T14:52:07;20.60;99.90
55211;DHT22;41082;52.822;6.666;2022-09-09T14:54:34;20.50;99.90
55211;DHT22;41082;52.822;6.666;2022-09-09T14:56:59;20.60;99.90
55211;DHT22;41082;52.822;6.666;2022-09-09T14:59:25;20.60;99.90
55211;DHT22;41082;52.822;6.666;2022-09-09T15:01:52;20.60;99.90
55211;DHT22;41082;52.822;6.666;2022-09-09T15:04:18;20.50;99.90
55211;DHT22;41082;52.822;6.666;2022-09-09T15:06:44;20.50;99.90
55211;DHT22;41082;52.822;6.666;2022-09-09T15:09:14;20.40;99.90
55211;DHT22;41082;52.822;6.666;2022-09-09T15:11:40;20.30;99.90
55211;DHT22;41082;52.822;6.666;2022-09-09T15:14:07;20.30;99.90
55211;DHT22;41082;52.822;6.666;2022-09-09T15:16:34;20.10;99.90
55211;DHT22;41082;52.822;6.666;2022-09-09T15:19:01;20.10;99.90
55211;DHT22;41082;52.822;6.666;2022-09-09T15:21:28;20.00;99.90
55211;DHT22;41082;52.822;6.666;2022-09-09T15:23:56;20.00;99.90
55211;DHT22;41082;52.822;6.666;2022-09-09T15:26:22;19.90;99.90
55211;DHT22;41082;52.822;6.666;2022-09-09T15:28:48;19.90;99.90
55211;DHT22;41082;52.822;6.666;2022-09-09T15:31:20;19.80;99.90
55211;DHT22;41082;52.822;6.666;2022-09-09T15:33:54;19.90;99.90
55211;DHT22;41082;52.822;6.666;2022-09-09T15:36:39;19.80;99.90
55211;DHT22;41082;52.822;6.666;2022-09-09T15:39:07;19.90;99.90
55211;DHT22;41082;52.822;6.666;2022-09-09T15:41:34;19.80;99.90
55211;DHT22;41082;52.822;6.666;2022-09-09T15:44:00;19.80;99.90
55211;DHT22;41082;52.822;6.666;2022-09-09T15:49:07;19.70;99.90
55211;DHT22;41082;52.822;6.666;2022-09-09T15:51:34;19.60;99.90
55211;DHT22;41082;52.822;6.666;2022-09-09T15:54:00;19.70;99.90
55211;DHT22;41082;52.822;6.666;2022-09-09T15:56:28;19.70;99.90
55211;DHT22;41082;52.822;6.666;2022-09-09T15:58:56;19.60;99.90
55211;DHT22;41082;52.822;6.666;2022-09-09T16:01:23;19.70;99.90
55211;DHT22;41082;52.822;6.666;2022-09-09T16:03:48;19.60;99.90
55211;DHT22;41082;52.822;6.666;2022-09-09T16:06:17;19.60;99.90
55211;DHT22;41082;52.822;6.666;2022-09-09T16:08:45;19.60;99.90
55211;DHT22;41082;52.822;6.666;2022-09-09T16:11:17;19.50;99.90
55211;DHT22;41082;52.822;6.666;2022-09-09T16:13:46;19.50;99.90
55211;DHT22;41082;52.822;6.666;2022-09-09T16:16:13;19.40;99.90
55211;DHT22;41082;52.822;6.666;2022-09-09T16:18:42;19.50;99.90
55211;DHT22;41082;52.822;6.666;2022-09-09T16:21:13;19.50;99.90
55211;DHT22;41082;52.822;6.666;2022-09-09T16:23:39;19.50;99.90
55211;DHT22;41082;52.822;6.666;2022-09-09T16:26:05;19.50;99.90
55211;DHT22;41082;52.822;6.666;2022-09-09T16:28:30;19.60;99.90
55211;DHT22;41082;52.822;6.666;2022-09-09T16:30:56;19.60;99.90
55211;DHT22;41082;52.822;6.666;2022-09-09T16:33:23;19.60;99.90
55211;DHT22;41082;52.822;6.666;2022-09-09T16:35:49;19.60;99.90
55211;DHT22;41082;52.822;6.666;2022-09-09T16:38:15;19.70;99.90
55211;DHT22;41082;52.822;6.666;2022-09-09T16:40:41;19.60;99.90
55211;DHT22;41082;52.822;6.666;2022-09-09T16:43:07;19.60;99.90
55211;DHT22;41082;52.822;6.666;2022-09-09T16:45:33;19.50;99.90
55211;DHT22;41082;52.822;6.666;2022-09-09T16:47:59;19.40;99.90
55211;DHT22;41082;52.822;6.666;2022-09-09T16:50:28;19.40;99.90
55211;DHT22;41082;52.822;6.666;2022-09-09T16:52:55;19.40;99.90
55211;DHT22;41082;52.822;6.666;2022-09-09T16:55:21;19.30;99.90
55211;DHT22;41082;52.822;6.666;2022-09-09T16:57:47;19.30;99.90
55211;DHT22;41082;52.822;6.666;2022-09-09T17:00:16;19.20;99.90
55211;DHT22;41082;52.822;6.666;2022-09-09T17:02:44;19.20;99.90
55211;DHT22;41082;52.822;6.666;2022-09-09T17:05:10;19.20;99.90
55211;DHT22;41082;52.822;6.666;2022-09-09T17:07:37;19.10;99.90
55211;DHT22;41082;52.822;6.666;2022-09-09T17:10:04;19.10;99.90
55211;DHT22;41082;52.822;6.666;2022-09-09T17:12:31;19.10;99.90
55211;DHT22;41082;52.822;6.666;2022-09-09T17:14:56;19.10;99.90
55211;DHT22;41082;52.822;6.666;2022-09-09T17:17:24;19.00;99.90
55211;DHT22;41082;52.822;6.666;2022-09-09T17:19:50;19.00;99.90
55211;DHT22;41082;52.822;6.666;2022-09-09T17:22:15;18.90;99.90
55211;DHT22;41082;52.822;6.666;2022-09-09T17:24:41;18.80;99.90
55211;DHT22;41082;52.822;6.666;2022-09-09T17:27:07;18.80;99.90
55211;DHT22;41082;52.822;6.666;2022-09-09T17:29:32;18.80;99.90
55211;DHT22;41082;52.822;6.666;2022-09-09T17:32:02;18.80;99.90
55211;DHT22;41082;52.822;6.666;2022-09-09T17:34:27;18.70;99.90
55211;DHT22;41082;52.822;6.666;2022-09-09T17:36:53;18.60;99.90
55211;DHT22;41082;52.822;6.666;2022-09-09T17:39:19;18.60;99.90
55211;DHT22;41082;52.822;6.666;2022-09-09T17:41:44;18.60;99.90
55211;DHT22;41082;52.822;6.666;2022-09-09T17:44:11;18.60;99.90